Time;durP1;ratioP1;P1;durP2;ratioP2;P2;SDS_P1;SDS_P2;PMS_P1;PMS_P2;Temp;Humidity;BMP_temperature;BMP_pressure;BME280_temperature;BME280_humidity;BME280_pressure;Samples;Min_cycle;Max_cycle;Signal;HPM_P1;HPM_P2
2022/12/18 00:01:32;;;;;;;61.95;22.88;;;;;;;;;;6082027;19;20546;-79
2022/12/18 00:03:40;;;;;;;66.82;24.35;;;;;;;;;;6061921;19;20412;-76
2022/12/18 00:06:01;;;;;;;70.15;22.35;;;;;;;;;;6071888;19;20007;-76
2022/12/18 00:08:09;;;;;;;68.93;24.13;;;;;;;;;;6071980;19;20486;-76
2022/12/18 00:10:19;;;;;;;72.53;25.38;;;;;;;;;;6079384;19;20566;-76
2022/12/18 00:12:41;;;;;;;67.63;24.75;;;;;;;;;;6058233;19;20006;-76
2022/12/18 00:14:49;;;;;;;54.80;22.92;;;;;;;;;;6078669;19;20006;-76
2022/12/18 00:17:05;;;;;;;64.15;24.27;;;;;;;;;;6081194;19;20505;-76
2022/12/18 00:19:11;;;;;;;75.75;29.08;;;;;;;;;;6106349;19;20119;-80
2022/12/18 00:21:24;;;;;;;67.93;22.90;;;;;;;;;;6106851;19;20036;-76
2022/12/18 00:23:34;;;;;;;69.47;25.58;;;;;;;;;;6011150;19;20467;-76
2022/12/18 00:25:45;;;;;;;72.90;27.13;;;;;;;;;;6071675;19;20338;-77
2022/12/18 00:27:56;;;;;;;77.72;27.85;;;;;;;;;;6056569;19;20366;-75
2022/12/18 00:30:01;;;;;;;79.50;29.33;;;;;;;;;;6104183;19;20018;-80
2022/12/18 00:32:06;;;;;;;84.93;27.42;;;;;;;;;;6104812;19;20014;-79
2022/12/18 00:34:12;;;;;;;68.97;26.38;;;;;;;;;;6105993;19;20539;-80
2022/12/18 00:36:18;;;;;;;73.68;27.40;;;;;;;;;;6106126;19;20009;-79
2022/12/18 00:38:23;;;;;;;76.88;27.50;;;;;;;;;;6104514;19;20035;-80
2022/12/18 00:40:28;;;;;;;76.28;26.48;;;;;;;;;;6104974;19;20035;-80
2022/12/18 00:44:58;;;;;;;71.22;26.52;;;;;;;;;;6082031;19;20392;-76
2022/12/18 00:47:13;;;;;;;74.82;27.63;;;;;;;;;;6060242;19;20011;-76
2022/12/18 00:49:33;;;;;;;60.53;21.33;;;;;;;;;;6051042;19;20074;-76
2022/12/18 00:51:41;;;;;;;88.10;29.77;;;;;;;;;;6094989;19;20021;-76
2022/12/18 00:53:59;;;;;;;69.30;21.75;;;;;;;;;;6054905;19;20132;-77
2022/12/18 00:56:05;;;;;;;88.05;27.25;;;;;;;;;;6064162;19;20021;-76
2022/12/18 00:58:22;;;;;;;88.43;28.08;;;;;;;;;;6098719;19;20007;-76
2022/12/18 01:00:30;;;;;;;70.40;26.08;;;;;;;;;;6073135;19;20006;-76
2022/12/18 01:02:56;;;;;;;80.13;27.30;;;;;;;;;;6097861;19;20074;-77
2022/12/18 01:05:09;;;;;;;;;;;;;;;;;;6060854;19;20010;-76
2022/12/18 01:07:22;;;;;;;73.57;27.15;;;;;;;;;;6058469;19;21089;-76
2022/12/18 01:09:28;;;;;;;67.63;26.63;;;;;;;;;;6080705;19;20057;-80
2022/12/18 01:11:33;;;;;;;100.60;30.55;;;;;;;;;;6104461;19;20010;-79
2022/12/18 01:13:41;;;;;;;80.72;27.10;;;;;;;;;;6104838;19;20462;-80
2022/12/18 01:15:51;;;;;;;63.88;22.90;;;;;;;;;;6099303;19;20719;-80
2022/12/18 01:17:57;;;;;;;85.43;24.52;;;;;;;;;;6072855;19;20244;-76
2022/12/18 01:20:18;;;;;;;84.10;22.80;;;;;;;;;;6050169;19;20014;-76
2022/12/18 01:22:30;;;;;;;78.03;22.83;;;;;;;;;;6096982;19;20026;-76
2022/12/18 01:24:39;;;;;;;94.97;28.00;;;;;;;;;;6093208;19;20050;-76
2022/12/18 01:26:49;;;;;;;85.53;27.67;;;;;;;;;;6078334;19;20025;-76
2022/12/18 01:29:02;;;;;;;84.63;28.40;;;;;;;;;;6030375;19;20067;-76
2022/12/18 01:31:18;;;;;;;83.57;27.15;;;;;;;;;;6077244;19;20014;-76
2022/12/18 01:33:31;;;;;;;90.85;28.90;;;;;;;;;;6093414;19;20006;-77
2022/12/18 01:35:45;;;;;;;90.38;27.05;;;;;;;;;;6074057;19;20042;-76
2022/12/18 01:38:02;;;;;;;89.72;30.17;;;;;;;;;;6049591;19;20399;-76
2022/12/18 01:40:12;;;;;;;82.70;27.00;;;;;;;;;;6073821;19;20122;-76
2022/12/18 01:42:32;;;;;;;89.85;28.70;;;;;;;;;;6095470;19;20017;-75
2022/12/18 01:45:28;;;;;;;89.20;27.15;;;;;;;;;;6053882;19;20103;-76
2022/12/18 01:47:47;;;;;;;76.45;27.95;;;;;;;;;;6032588;19;20462;-76
2022/12/18 01:49:57;;;;;;;64.53;25.00;;;;;;;;;;6078890;19;20365;-76
2022/12/18 01:52:02;;;;;;;70.20;24.55;;;;;;;;;;6102127;19;20027;-79
2022/12/18 01:54:07;;;;;;;84.82;28.77;;;;;;;;;;6102231;19;20078;-78
2022/12/18 01:56:15;;;;;;;67.43;22.25;;;;;;;;;;6103532;19;20018;-79
2022/12/18 01:58:20;;;;;;;89.63;27.38;;;;;;;;;;6104245;19;20346;-80
2022/12/18 02:00:26;;;;;;;66.72;23.38;;;;;;;;;;6101595;19;20485;-80
2022/12/18 02:02:32;;;;;;;82.07;28.73;;;;;;;;;;6104275;19;20014;-79
2022/12/18 02:04:39;;;;;;;73.97;25.35;;;;;;;;;;6105569;19;20014;-79
2022/12/18 02:06:53;;;;;;;81.93;26.58;;;;;;;;;;6102196;19;20748;-79
2022/12/18 02:09:06;;;;;;;59.92;22.85;;;;;;;;;;6095166;19;20782;-76
2022/12/18 02:11:26;;;;;;;56.33;25.38;;;;;;;;;;6072590;19;20486;-77
2022/12/18 02:13:37;;;;;;;63.35;23.42;;;;;;;;;;6044810;19;20572;-76
2022/12/18 02:15:55;;;;;;;94.35;29.13;;;;;;;;;;6095333;19;20010;-75
2022/12/18 02:18:15;;;;;;;84.30;27.95;;;;;;;;;;6071936;19;20010;-76
2022/12/18 02:20:28;;;;;;;79.47;26.55;;;;;;;;;;6097154;19;20010;-76
2022/12/18 02:22:40;;;;;;;82.05;28.15;;;;;;;;;;6084429;19;20010;-76
2022/12/18 02:24:57;;;;;;;78.22;25.73;;;;;;;;;;6094065;19;20042;-76
2022/12/18 02:27:09;;;;;;;80.70;28.85;;;;;;;;;;6073136;19;20021;-76
2022/12/18 02:29:27;;;;;;;72.68;27.42;;;;;;;;;;6055122;19;20395;-76
2022/12/18 02:31:43;;;;;;;72.28;26.67;;;;;;;;;;6058911;19;20011;-76
2022/12/18 02:33:59;;;;;;;86.55;29.08;;;;;;;;;;6091075;19;20010;-76
2022/12/18 02:36:12;;;;;;;72.28;24.88;;;;;;;;;;6045519;19;20038;-76
2022/12/18 02:38:33;;;;;;;67.70;24.73;;;;;;;;;;6077471;19;20014;-76
2022/12/18 02:40:46;;;;;;;79.82;27.60;;;;;;;;;;6078042;19;20006;-78
2022/12/18 02:42:56;;;;;;;;;;;;;;;;;;6040026;19;20036;-75
2022/12/18 02:45:05;;;;;;;46.05;23.90;;;;;;;;;;6077538;19;19910;-76
2022/12/18 02:47:12;;;;;;;74.35;26.92;;;;;;;;;;6107350;19;20019;-79
2022/12/18 02:49:27;;;;;;;75.28;26.05;;;;;;;;;;6105711;19;20411;-79
2022/12/18 02:51:35;;;;;;;58.88;22.58;;;;;;;;;;6107101;19;20022;-79
2022/12/18 02:53:46;;;;;;;61.25;24.75;;;;;;;;;;6105682;19;20408;-79
2022/12/18 02:56:01;;;;;;;47.30;20.45;;;;;;;;;;6107861;19;20010;-79
2022/12/18 02:58:17;;;;;;;65.25;22.17;;;;;;;;;;6108663;19;20011;-78
2022/12/18 03:00:24;;;;;;;58.67;20.13;;;;;;;;;;6108302;19;20006;-80
2022/12/18 03:02:35;;;;;;;47.40;17.70;;;;;;;;;;6106575;19;20876;-79
2022/12/18 03:04:45;;;;;;;109.18;23.50;;;;;;;;;;6107118;19;20289;-79
2022/12/18 03:06:56;;;;;;;55.83;20.70;;;;;;;;;;6105769;19;20014;-76
2022/12/18 03:09:14;;;;;;;54.67;22.02;;;;;;;;;;6084718;19;20074;-76
2022/12/18 03:12:22;;;;;;;60.85;23.35;;;;;;;;;;6018436;19;20010;-76
2022/12/18 03:14:04;;;;;;;50.00;19.55;;;;;;;;;;6029633;19;20008;-75
2022/12/18 03:16:23;;;;;;;44.80;22.60;;;;;;;;;;6081407;19;20078;-76
2022/12/18 03:18:35;;;;;;;59.72;17.48;;;;;;;;;;6100995;19;20015;-77
2022/12/18 03:20:45;;;;;;;57.72;22.67;;;;;;;;;;6079390;19;20022;-76
2022/12/18 03:23:04;;;;;;;75.40;24.48;;;;;;;;;;6057266;19;20101;-77
2022/12/18 03:25:17;;;;;;;42.88;14.55;;;;;;;;;;6082614;19;20080;-76
2022/12/18 03:27:26;;;;;;;77.72;25.50;;;;;;;;;;6013780;19;20432;-76
2022/12/18 03:29:47;;;;;;;51.88;20.55;;;;;;;;;;6102797;19;20023;-76
2022/12/18 03:32:01;;;;;;;70.22;23.45;;;;;;;;;;6017143;19;20007;-76
2022/12/18 03:34:14;;;;;;;67.07;22.92;;;;;;;;;;6060284;19;20010;-76
2022/12/18 03:36:26;;;;;;;52.30;19.55;;;;;;;;;;6084026;19;20011;-77
2022/12/18 03:38:35;;;;;;;;;;;;;;;;;;6099914;19;20025;-77
2022/12/18 03:40:47;;;;;;;56.50;18.67;;;;;;;;;;6107504;19;19921;-79
2022/12/18 03:42:55;;;;;;;53.88;21.08;;;;;;;;;;6107594;19;20011;-80
2022/12/18 03:45:10;;;;;;;54.25;19.83;;;;;;;;;;6099261;19;20129;-75
2022/12/18 03:47:19;;;;;;;74.47;25.02;;;;;;;;;;6079296;19;20089;-77
2022/12/18 03:49:33;;;;;;;52.78;19.17;;;;;;;;;;6057075;19;20014;-75
2022/12/18 03:51:42;;;;;;;66.80;21.00;;;;;;;;;;6041559;19;20004;-75
2022/12/18 03:53:55;;;;;;;55.72;22.85;;;;;;;;;;6094773;19;20468;-76
2022/12/18 03:56:02;;;;;;;59.42;22.08;;;;;;;;;;6106029;19;20038;-79
2022/12/18 03:58:07;;;;;;;47.15;19.80;;;;;;;;;;6107606;19;20010;-79
2022/12/18 04:00:16;;;;;;;69.35;23.33;;;;;;;;;;6104812;19;20422;-79
2022/12/18 04:02:22;;;;;;;71.28;26.63;;;;;;;;;;6105718;19;20038;-77
2022/12/18 04:04:38;;;;;;;71.72;24.63;;;;;;;;;;6107689;19;20015;-75
2022/12/18 04:06:57;;;;;;;55.28;18.02;;;;;;;;;;6064394;19;20007;-75
2022/12/18 04:09:11;;;;;;;65.90;24.65;;;;;;;;;;6101554;19;20046;-75
2022/12/18 04:11:23;;;;;;;63.13;23.20;;;;;;;;;;6099323;19;20070;-75
2022/12/18 04:13:36;;;;;;;67.72;22.35;;;;;;;;;;6084032;19;20010;-75
2022/12/18 04:15:52;;;;;;;57.80;21.58;;;;;;;;;;6064781;19;20478;-75
2022/12/18 04:17:58;;;;;;;60.42;21.27;;;;;;;;;;6081243;19;20010;-75
2022/12/18 04:20:06;;;;;;;67.53;23.25;;;;;;;;;;6057652;19;20297;-78
2022/12/18 04:22:20;;;;;;;65.63;23.05;;;;;;;;;;6103605;19;20491;-75
2022/12/18 04:24:32;;;;;;;55.38;20.65;;;;;;;;;;6081028;19;20521;-75
2022/12/18 04:26:45;;;;;;;51.63;20.88;;;;;;;;;;6104931;19;20011;-76
2022/12/18 04:31:22;;;;;;;63.88;23.17;;;;;;;;;;6097346;19;20069;-75
2022/12/18 04:33:29;;;;;;;53.85;22.33;;;;;;;;;;6065615;19;20016;-76
2022/12/18 04:35:34;;;;;;;64.32;23.25;;;;;;;;;;6107257;19;20010;-76
2022/12/18 04:37:39;;;;;;;60.58;21.45;;;;;;;;;;6105756;19;20566;-78
2022/12/18 04:39:43;;;;;;;60.90;22.20;;;;;;;;;;6105635;19;20033;-78
2022/12/18 04:41:55;;;;;;;46.85;18.58;;;;;;;;;;6072516;19;20027;-75
2022/12/18 04:44:05;;;;;;;50.55;18.30;;;;;;;;;;6102948;19;20010;-75
2022/12/18 04:46:22;;;;;;;62.55;19.33;;;;;;;;;;6069715;19;20464;-77
2022/12/18 04:48:32;;;;;;;62.67;22.67;;;;;;;;;;6036614;19;20017;-77
2022/12/18 04:50:42;;;;;;;47.65;19.10;;;;;;;;;;6104016;19;20010;-77
2022/12/18 04:52:56;;;;;;;39.47;17.73;;;;;;;;;;6045645;19;20045;-77
2022/12/18 04:55:01;;;;;;;;;;;;;;;;;;6078567;19;20006;-74
2022/12/18 04:57:17;;;;;;;50.85;18.70;;;;;;;;;;6078096;19;19990;-75
2022/12/18 04:59:29;;;;;;;54.78;19.50;;;;;;;;;;6068916;19;20441;-78
2022/12/18 05:01:34;;;;;;;54.38;20.20;;;;;;;;;;6107386;19;20011;-76
2022/12/18 05:03:41;;;;;;;48.25;18.92;;;;;;;;;;6105536;19;20018;-77
2022/12/18 05:05:47;;;;;;;61.28;21.25;;;;;;;;;;6104831;19;20011;-78
2022/12/18 05:07:52;;;;;;;53.80;20.80;;;;;;;;;;6105533;19;20082;-76
2022/12/18 05:09:57;;;;;;;47.85;18.17;;;;;;;;;;6104075;19;20014;-78
2022/12/18 05:12:05;;;;;;;45.95;18.85;;;;;;;;;;6063352;19;20041;-77
2022/12/18 05:14:24;;;;;;;48.17;20.20;;;;;;;;;;6075736;19;20018;-76
2022/12/18 05:16:31;;;;;;;54.47;20.77;;;;;;;;;;6076985;19;20602;-76
2022/12/18 05:18:41;;;;;;;56.83;21.50;;;;;;;;;;6032021;19;20003;-77
2022/12/18 05:20:50;;;;;;;47.20;16.75;;;;;;;;;;6104894;19;20041;-78
2022/12/18 05:23:13;;;;;;;49.83;18.88;;;;;;;;;;6051695;19;20426;-76
2022/12/18 05:25:19;;;;;;;53.95;20.45;;;;;;;;;;6072109;19;20010;-76
2022/12/18 05:27:24;;;;;;;41.60;18.92;;;;;;;;;;6103670;19;20006;-76
2022/12/18 05:29:28;;;;;;;51.88;18.55;;;;;;;;;;6105810;19;20014;-78
2022/12/18 05:31:33;;;;;;;54.38;22.63;;;;;;;;;;6105860;19;20021;-79
2022/12/18 05:33:43;;;;;;;52.72;18.40;;;;;;;;;;6103728;19;20010;-76
2022/12/18 05:35:55;;;;;;;45.63;19.35;;;;;;;;;;6068246;19;20006;-75
2022/12/18 05:38:09;;;;;;;58.40;20.58;;;;;;;;;;6077138;19;20006;-75
2022/12/18 05:40:15;;;;;;;54.38;19.70;;;;;;;;;;6098783;19;20438;-75
2022/12/18 05:42:20;;;;;;;52.30;19.55;;;;;;;;;;6077300;19;20011;-76
2022/12/18 05:44:25;;;;;;;61.70;21.65;;;;;;;;;;6102381;19;20074;-76
2022/12/18 05:46:30;;;;;;;42.38;17.08;;;;;;;;;;6104619;19;20074;-76
2022/12/18 05:48:36;;;;;;;42.08;18.70;;;;;;;;;;6062419;19;20019;-75
2022/12/18 05:50:45;;;;;;;51.90;22.00;;;;;;;;;;6093610;19;20046;-75
2022/12/18 05:52:57;;;;;;;51.50;20.45;;;;;;;;;;6086071;19;20086;-75
2022/12/18 05:55:03;;;;;;;58.92;20.67;;;;;;;;;;6038937;19;20014;-75
2022/12/18 05:57:19;;;;;;;46.30;19.13;;;;;;;;;;6091573;19;20712;-75
2022/12/18 05:59:35;;;;;;;42.70;17.40;;;;;;;;;;6020325;19;20024;-75
2022/12/18 06:01:57;;;;;;;51.95;19.45;;;;;;;;;;6095242;19;20010;-75
2022/12/18 06:04:11;;;;;;;51.83;20.67;;;;;;;;;;6097311;19;20102;-75
2022/12/18 06:06:22;;;;;;;42.13;18.15;;;;;;;;;;6052408;19;20025;-75
2022/12/18 06:08:34;;;;;;;47.42;17.55;;;;;;;;;;6079802;19;20006;-75
2022/12/18 06:10:56;;;;;;;39.75;18.60;;;;;;;;;;6055635;19;20017;-76
2022/12/18 06:13:04;;;;;;;38.20;16.77;;;;;;;;;;6053911;19;20530;-75
2022/12/18 06:15:12;;;;;;;41.25;17.35;;;;;;;;;;6073176;19;20007;-76
2022/12/18 06:17:17;;;;;;;45.08;18.92;;;;;;;;;;6101002;19;20018;-76
2022/12/18 06:19:22;;;;;;;42.28;16.75;;;;;;;;;;6103269;19;20082;-76
2022/12/18 06:21:28;;;;;;;35.15;15.73;;;;;;;;;;6102881;19;20035;-76
2022/12/18 06:23:35;;;;;;;41.30;17.38;;;;;;;;;;6105004;19;20038;-76
2022/12/18 06:25:41;;;;;;;38.35;16.75;;;;;;;;;;6102496;19;20006;-76
2022/12/18 06:27:46;;;;;;;41.83;19.33;;;;;;;;;;6105387;19;20048;-76
2022/12/18 06:29:51;;;;;;;47.70;19.10;;;;;;;;;;6103776;19;20034;-76
2022/12/18 06:31:55;;;;;;;22.52;10.05;;;;;;;;;;6103712;19;20007;-76
2022/12/18 06:34:00;;;;;;;36.97;19.25;;;;;;;;;;6101179;19;20019;-76
2022/12/18 06:36:09;;;;;;;24.15;13.43;;;;;;;;;;6099520;19;20025;-76
2022/12/18 06:38:14;;;;;;;32.25;14.15;;;;;;;;;;6098657;19;20715;-76
2022/12/18 06:40:21;;;;;;;29.60;12.15;;;;;;;;;;6103730;19;20011;-76
2022/12/18 06:42:26;;;;;;;33.67;15.82;;;;;;;;;;6103359;19;20010;-76
2022/12/18 06:44:30;;;;;;;34.03;14.48;;;;;;;;;;6102778;19;20007;-76
2022/12/18 06:46:35;;;;;;;31.67;14.90;;;;;;;;;;6102105;19;20018;-76
2022/12/18 06:48:40;;;;;;;39.90;16.77;;;;;;;;;;6103448;19;20024;-76
2022/12/18 06:50:45;;;;;;;34.55;14.50;;;;;;;;;;6104219;19;20019;-76
2022/12/18 06:52:49;;;;;;;32.22;13.40;;;;;;;;;;6101279;19;20022;-77
2022/12/18 06:55:09;;;;;;;24.30;13.43;;;;;;;;;;6103653;19;20458;-75
2022/12/18 06:57:16;;;;;;;35.42;18.50;;;;;;;;;;6059630;19;20011;-76
2022/12/18 06:59:21;;;;;;;45.03;16.33;;;;;;;;;;6101245;19;20439;-76
2022/12/18 07:01:27;;;;;;;40.78;13.57;;;;;;;;;;6100806;19;20014;-76
2022/12/18 07:03:33;;;;;;;26.40;15.43;;;;;;;;;;6101901;19;20006;-76
2022/12/18 07:05:42;;;;;;;38.70;16.40;;;;;;;;;;6101116;19;20025;-76
2022/12/18 07:07:52;;;;;;;37.90;15.30;;;;;;;;;;6074961;19;20361;-75
2022/12/18 07:10:13;;;;;;;33.83;13.50;;;;;;;;;;6074662;19;20039;-76
2022/12/18 07:12:22;;;;;;;32.00;17.50;;;;;;;;;;6049377;19;20840;-76
2022/12/18 07:14:27;;;;;;;26.45;15.00;;;;;;;;;;6099467;19;20611;-76
2022/12/18 07:16:33;;;;;;;24.08;11.63;;;;;;;;;;6107025;19;20002;-76
2022/12/18 07:18:42;;;;;;;21.95;10.57;;;;;;;;;;6082123;19;20014;-75
2022/12/18 07:20:58;;;;;;;20.20;11.20;;;;;;;;;;6098088;19;20014;-75
2022/12/18 07:23:10;;;;;;;23.90;10.48;;;;;;;;;;6082429;19;20018;-75
2022/12/18 07:25:15;;;;;;;18.53;8.67;;;;;;;;;;6082194;19;20019;-76
2022/12/18 07:27:23;;;;;;;25.42;11.60;;;;;;;;;;6104520;19;20252;-75
2022/12/18 07:29:28;;;;;;;29.20;13.35;;;;;;;;;;6107234;19;20019;-76
2022/12/18 07:31:33;;;;;;;26.20;14.95;;;;;;;;;;6105983;19;20377;-76
2022/12/18 07:33:40;;;;;;;20.63;10.10;;;;;;;;;;6074803;19;20025;-75
2022/12/18 07:35:52;;;;;;;17.98;10.55;;;;;;;;;;6063447;19;20013;-75
2022/12/18 07:38:04;;;;;;;14.50;8.48;;;;;;;;;;6104441;19;20054;-76
2022/12/18 07:40:13;;;;;;;25.88;15.20;;;;;;;;;;6105991;19;20020;-76
2022/12/18 07:44:42;;;;;;;30.00;13.02;;;;;;;;;;6107605;19;20007;-75
2022/12/18 07:46:47;;;;;;;23.92;11.05;;;;;;;;;;6094725;19;20035;-75
2022/12/18 07:48:52;;;;;;;19.10;11.10;;;;;;;;;;6107381;19;20014;-76
2022/12/18 07:51:01;;;;;;;27.27;13.52;;;;;;;;;;6107157;19;20038;-75
2022/12/18 07:53:07;;;;;;;27.48;13.40;;;;;;;;;;6054926;19;20011;-75
2022/12/18 07:55:11;;;;;;;30.88;14.90;;;;;;;;;;6108380;19;20027;-75
2022/12/18 07:57:17;;;;;;;25.27;10.18;;;;;;;;;;6106541;19;20032;-75
2022/12/18 07:59:45;;;;;;;28.80;13.10;;;;;;;;;;6104167;19;20368;-76
2022/12/18 08:01:49;;;;;;;17.77;10.77;;;;;;;;;;6106309;19;20037;-76
2022/12/18 08:03:54;;;;;;;26.77;14.48;;;;;;;;;;6104877;19;20010;-75
2022/12/18 08:06:01;;;;;;;29.77;15.20;;;;;;;;;;6103394;19;20006;-75
2022/12/18 08:08:07;;;;;;;22.60;11.88;;;;;;;;;;6101968;19;20031;-75
2022/12/18 08:10:12;;;;;;;27.73;13.50;;;;;;;;;;6105490;19;20018;-76
2022/12/18 08:12:16;;;;;;;36.85;15.18;;;;;;;;;;6104616;19;20015;-76
2022/12/18 08:14:21;;;;;;;16.48;9.88;;;;;;;;;;6106189;19;20070;-76
2022/12/18 08:16:28;;;;;;;22.10;12.23;;;;;;;;;;6105998;19;20079;-76
2022/12/18 08:18:37;;;;;;;21.75;12.23;;;;;;;;;;6096652;19;20017;-76
2022/12/18 08:20:44;;;;;;;28.40;13.02;;;;;;;;;;6106817;19;20016;-76
2022/12/18 08:22:49;;;;;;;28.58;12.52;;;;;;;;;;6105793;19;20338;-75
2022/12/18 08:24:53;;;;;;;20.88;9.70;;;;;;;;;;6104765;19;20038;-76
2022/12/18 08:26:58;;;;;;;32.50;16.05;;;;;;;;;;6102281;19;20579;-76
2022/12/18 08:29:23;;;;;;;22.15;10.88;;;;;;;;;;6101704;19;20006;-76
2022/12/18 08:31:32;;;;;;;30.40;13.43;;;;;;;;;;6105201;19;20517;-76
2022/12/18 08:33:37;;;;;;;23.95;12.40;;;;;;;;;;6098730;19;20123;-76
2022/12/18 08:35:43;;;;;;;24.02;11.80;;;;;;;;;;6102628;19;20022;-76
2022/12/18 08:37:49;;;;;;;19.05;11.32;;;;;;;;;;6104172;19;20471;-76
2022/12/18 08:39:54;;;;;;;25.77;11.90;;;;;;;;;;6102656;19;20011;-76
2022/12/18 08:46:51;;;;;;;27.52;15.70;;;;;;;;;;6101934;19;20015;-76
2022/12/18 08:48:56;;;;;;;31.85;13.07;;;;;;;;;;6097204;19;20023;-76
2022/12/18 08:51:02;;;;;;;23.08;12.85;;;;;;;;;;6105694;19;20029;-76
2022/12/18 08:53:06;;;;;;;26.08;14.52;;;;;;;;;;6102899;19;20023;-77
2022/12/18 08:55:12;;;;;;;25.25;14.27;;;;;;;;;;6106423;19;20015;-76
2022/12/18 08:57:16;;;;;;;29.02;13.02;;;;;;;;;;6104733;19;20018;-77
2022/12/18 08:59:23;;;;;;;23.90;12.40;;;;;;;;;;6106071;19;20038;-77
2022/12/18 09:01:28;;;;;;;31.80;15.90;;;;;;;;;;6106196;19;20379;-77
2022/12/18 09:03:36;;;;;;;27.67;15.13;;;;;;;;;;6107229;19;20028;-77
2022/12/18 09:05:41;;;;;;;26.67;13.57;;;;;;;;;;6105815;19;20019;-77
2022/12/18 09:07:45;;;;;;;24.95;13.95;;;;;;;;;;6103578;19;20015;-77
2022/12/18 09:09:58;;;;;;;35.20;13.15;;;;;;;;;;6102875;19;20066;-76
2022/12/18 09:12:03;;;;;;;25.45;13.50;;;;;;;;;;6058775;19;20078;-76
2022/12/18 09:14:09;;;;;;;23.20;13.00;;;;;;;;;;6097065;19;20010;-76
2022/12/18 09:16:14;;;;;;;30.90;15.45;;;;;;;;;;6098790;19;20011;-76
2022/12/18 09:18:21;;;;;;;32.80;14.10;;;;;;;;;;6096858;19;20731;-76
2022/12/18 09:20:29;;;;;;;31.83;12.60;;;;;;;;;;6098493;19;20011;-76
2022/12/18 09:22:34;;;;;;;24.77;12.48;;;;;;;;;;6107728;19;20599;-77
2022/12/18 09:24:39;;;;;;;22.60;13.00;;;;;;;;;;6102239;19;20149;-75
2022/12/18 09:26:44;;;;;;;27.25;14.13;;;;;;;;;;6099972;19;20024;-78
2022/12/18 09:28:50;;;;;;;26.45;15.07;;;;;;;;;;6099954;19;20042;-77
2022/12/18 09:30:59;;;;;;;16.88;9.20;;;;;;;;;;6103670;19;20589;-77
2022/12/18 09:33:03;;;;;;;19.15;10.55;;;;;;;;;;6105301;19;20074;-77
2022/12/18 09:35:11;;;;;;;28.83;10.85;;;;;;;;;;6106044;19;20463;-78
2022/12/18 09:37:19;;;;;;;29.35;15.20;;;;;;;;;;6097368;19;20307;-77
2022/12/18 09:39:23;;;;;;;29.08;13.10;;;;;;;;;;6103076;19;20009;-77
2022/12/18 09:41:42;;;;;;;21.80;12.02;;;;;;;;;;6105727;19;20501;-76
2022/12/18 09:43:49;;;;;;;27.35;13.55;;;;;;;;;;6102260;19;20007;-77
2022/12/18 09:45:58;;;;;;;21.92;11.52;;;;;;;;;;6100382;19;20006;-76
2022/12/18 09:48:08;;;;;;;26.38;14.18;;;;;;;;;;6098792;19;20010;-76
2022/12/18 09:50:24;;;;;;;19.17;10.95;;;;;;;;;;6101153;19;20010;-76
2022/12/18 09:52:35;;;;;;;27.10;11.75;;;;;;;;;;6072241;19;20007;-76
2022/12/18 09:54:56;;;;;;;30.75;12.18;;;;;;;;;;6062772;19;20002;-75
2022/12/18 09:57:03;;;;;;;21.15;12.18;;;;;;;;;;6078122;19;20014;-75
2022/12/18 09:59:08;;;;;;;20.27;7.60;;;;;;;;;;6098530;19;20013;-77
2022/12/18 10:01:13;;;;;;;25.35;11.48;;;;;;;;;;6104608;19;20052;-77
2022/12/18 10:03:18;;;;;;;25.50;11.35;;;;;;;;;;6101251;19;20425;-76
2022/12/18 10:05:32;;;;;;;31.95;14.93;;;;;;;;;;6103390;19;20047;-76
2022/12/18 10:08:11;;;;;;;31.45;13.07;;;;;;;;;;6076847;19;20014;-76
2022/12/18 10:10:28;;;;;;;22.70;10.98;;;;;;;;;;6100338;19;20045;-76
2022/12/18 10:12:37;;;;;;;24.67;12.63;;;;;;;;;;6103219;19;20082;-76
2022/12/18 10:14:47;;;;;;;26.42;13.75;;;;;;;;;;6099364;19;20014;-76
2022/12/18 10:17:00;;;;;;;26.92;12.73;;;;;;;;;;6099418;19;20421;-79
2022/12/18 10:19:16;;;;;;;28.55;13.77;;;;;;;;;;6100538;19;20010;-80
2022/12/18 10:21:24;;;;;;;18.90;10.70;;;;;;;;;;6098837;19;20039;-79
2022/12/18 10:23:35;;;;;;;26.40;12.60;;;;;;;;;;6096177;19;20266;-78
2022/12/18 10:25:57;;;;;;;25.05;13.57;;;;;;;;;;6097623;19;20310;-77
2022/12/18 10:28:15;;;;;;;23.42;11.02;;;;;;;;;;6080991;19;20007;-77
2022/12/18 10:30:23;;;;;;;26.73;13.20;;;;;;;;;;6092340;19;20109;-75
2022/12/18 10:32:29;;;;;;;26.00;14.52;;;;;;;;;;6095642;19;20017;-77
2022/12/18 10:34:40;;;;;;;17.90;9.30;;;;;;;;;;6094744;19;20010;-76
2022/12/18 10:36:50;;;;;;;26.88;14.05;;;;;;;;;;6059170;19;20088;-77
2022/12/18 10:39:18;;;;;;;28.20;14.25;;;;;;;;;;6093171;19;20014;-76
2022/12/18 10:41:30;;;;;;;19.65;9.55;;;;;;;;;;6087611;19;20010;-75
2022/12/18 10:43:36;;;;;;;16.70;9.10;;;;;;;;;;6098862;19;20496;-75
2022/12/18 10:45:41;;;;;;;32.22;14.98;;;;;;;;;;6102706;19;20054;-74
2022/12/18 10:47:49;;;;;;;26.88;14.52;;;;;;;;;;6098395;19;20586;-77
2022/12/18 10:49:55;;;;;;;39.40;16.63;;;;;;;;;;6107864;19;20017;-76
2022/12/18 10:52:08;;;;;;;28.95;14.30;;;;;;;;;;6108181;19;20014;-77
2022/12/18 10:54:21;;;;;;;31.80;15.25;;;;;;;;;;6105962;19;20026;-76
2022/12/18 10:56:27;;;;;;;22.67;11.75;;;;;;;;;;6108617;19;20074;-76
2022/12/18 10:58:34;;;;;;;29.75;14.43;;;;;;;;;;6107878;19;20036;-75
2022/12/18 11:00:39;;;;;;;26.25;12.50;;;;;;;;;;6106560;19;20019;-78
2022/12/18 11:02:44;;;;;;;22.60;12.52;;;;;;;;;;6103657;19;20558;-77
2022/12/18 11:04:53;;;;;;;30.13;14.20;;;;;;;;;;6108651;19;20095;-76
2022/12/18 11:07:00;;;;;;;28.33;15.10;;;;;;;;;;6108562;19;20339;-77
2022/12/18 11:09:07;;;;;;;28.08;14.88;;;;;;;;;;6107102;19;20006;-77
2022/12/18 11:11:23;;;;;;;26.77;13.93;;;;;;;;;;6107737;19;20460;-76
2022/12/18 11:13:30;;;;;;;28.05;13.55;;;;;;;;;;6108361;19;20050;-76
2022/12/18 11:15:36;;;;;;;34.55;15.70;;;;;;;;;;6108199;19;20440;-77
2022/12/18 11:17:41;;;;;;;22.60;14.35;;;;;;;;;;6107706;19;20076;-76
2022/12/18 11:19:46;;;;;;;31.75;14.90;;;;;;;;;;6109262;19;20010;-76
2022/12/18 11:21:51;;;;;;;33.45;15.98;;;;;;;;;;6105632;19;20015;-76
2022/12/18 11:23:57;;;;;;;25.52;12.30;;;;;;;;;;6107154;19;20448;-76
2022/12/18 11:26:08;;;;;;;29.88;15.05;;;;;;;;;;6103953;19;20143;-76
2022/12/18 11:28:32;;;;;;;;;;;;;;;;;;6080073;19;20010;-76
2022/12/18 11:30:44;;;;;;;;;;;;;;;;;;6080711;19;19915;-76
2022/12/18 11:32:53;;;;;;;28.63;14.17;;;;;;;;;;6078143;19;20868;-78
2022/12/18 11:35:02;;;;;;;22.00;12.13;;;;;;;;;;6105380;19;20014;-78
2022/12/18 11:37:12;;;;;;;29.15;13.55;;;;;;;;;;6059290;19;20003;-76
2022/12/18 11:39:22;;;;;;;26.40;12.60;;;;;;;;;;6102945;19;20018;-76
2022/12/18 11:44:03;;;;;;;31.05;15.32;;;;;;;;;;6084521;19;20007;-77
2022/12/18 11:46:13;;;;;;;29.33;14.05;;;;;;;;;;6107686;19;20055;-77
2022/12/18 11:48:26;;;;;;;29.83;15.60;;;;;;;;;;6106224;19;20014;-78
2022/12/18 11:50:36;;;;;;;21.75;13.93;;;;;;;;;;6107394;19;20015;-78
2022/12/18 11:52:43;;;;;;;27.80;13.13;;;;;;;;;;6103842;19;20023;-76
2022/12/18 11:54:48;;;;;;;31.30;13.38;;;;;;;;;;6102507;19;20010;-77
2022/12/18 11:56:56;;;;;;;29.60;14.95;;;;;;;;;;6105337;19;20014;-76
2022/12/18 11:59:11;;;;;;;31.98;14.13;;;;;;;;;;6106486;19;20042;-76
2022/12/18 12:01:28;;;;;;;29.58;14.38;;;;;;;;;;6103766;19;20010;-77
2022/12/18 12:03:48;;;;;;;31.52;15.85;;;;;;;;;;6108343;19;20381;-76
2022/12/18 12:06:10;;;;;;;25.95;16.17;;;;;;;;;;6106707;19;20381;-76
2022/12/18 12:08:18;;;;;;;36.83;16.77;;;;;;;;;;6105505;19;20019;-77
2022/12/18 12:10:37;;;;;;;27.23;15.55;;;;;;;;;;6108686;19;20015;-76
2022/12/18 12:13:01;;;;;;;30.45;15.05;;;;;;;;;;6102205;19;20066;-76
2022/12/18 12:15:17;;;;;;;32.40;14.90;;;;;;;;;;6099752;19;20045;-76
2022/12/18 12:17:32;;;;;;;34.25;14.35;;;;;;;;;;6083035;19;20566;-76
2022/12/18 12:19:42;;;;;;;18.70;8.75;;;;;;;;;;6106170;19;20260;-76
2022/12/18 12:21:52;;;;;;;25.73;14.75;;;;;;;;;;6081802;19;20006;-76
2022/12/18 12:24:04;;;;;;;31.67;15.73;;;;;;;;;;6079739;19;20078;-77
2022/12/18 12:26:34;;;;;;;21.70;13.30;;;;;;;;;;6100659;19;20042;-77
2022/12/18 12:29:14;;;;;;;25.50;12.30;;;;;;;;;;6081304;19;20014;-76
2022/12/18 12:32:05;;;;;;;27.38;13.32;;;;;;;;;;6080967;19;20047;-76
2022/12/18 12:34:23;;;;;;;21.52;11.93;;;;;;;;;;6099421;19;20067;-77
2022/12/18 12:36:37;;;;;;;28.40;14.60;;;;;;;;;;6075135;19;20050;-76
2022/12/18 12:38:45;;;;;;;34.17;16.33;;;;;;;;;;6103565;19;20014;-78
2022/12/18 12:40:59;;;;;;;30.67;16.30;;;;;;;;;;6105974;19;20014;-77
2022/12/18 12:43:12;;;;;;;25.08;12.63;;;;;;;;;;6104865;19;20006;-77
2022/12/18 12:45:20;;;;;;;26.25;15.40;;;;;;;;;;6094845;19;20443;-77
2022/12/18 12:47:36;;;;;;;30.23;15.02;;;;;;;;;;6104095;19;20369;-77
2022/12/18 12:49:47;;;;;;;39.85;17.95;;;;;;;;;;6106956;19;20042;-78
2022/12/18 12:52:00;;;;;;;36.35;19.13;;;;;;;;;;6107761;19;20352;-76
2022/12/18 12:54:07;;;;;;;30.30;15.10;;;;;;;;;;6100941;19;20025;-75
2022/12/18 12:56:26;;;;;;;25.50;14.68;;;;;;;;;;6096612;19;20494;-77